sensor_id;sensor_type;location;lat;lon;timestamp;temperature;humidity
318;DHT22;146;53.448;10.228;2022-12-18T00:00:46;-5.10;1.00
318;DHT22;146;53.448;10.228;2022-12-18T00:03:13;-5.10;1.00
318;DHT22;146;53.448;10.228;2022-12-18T00:05:46;-5.10;1.00
318;DHT22;146;53.448;10.228;2022-12-18T00:08:13;-5.10;1.00
318;DHT22;146;53.448;10.228;2022-12-18T00:10:40;-5.10;1.00
318;DHT22;146;53.448;10.228;2022-12-18T00:13:07;-5.10;1.00
318;DHT22;146;53.448;10.228;2022-12-18T00:15:34;-5.10;1.00
318;DHT22;146;53.448;10.228;2022-12-18T00:18:02;-5.00;1.00
318;DHT22;146;53.448;10.228;2022-12-18T00:20:29;-5.10;1.00
318;DHT22;146;53.448;10.228;2022-12-18T00:22:55;-5.10;1.00
318;DHT22;146;53.448;10.228;2022-12-18T00:25:22;-5.10;1.00
318;DHT22;146;53.448;10.228;2022-12-18T00:27:49;-5.00;1.00
318;DHT22;146;53.448;10.228;2022-12-18T00:30:16;-5.00;1.00
318;DHT22;146;53.448;10.228;2022-12-18T00:32:43;-5.10;1.00
318;DHT22;146;53.448;10.228;2022-12-18T00:35:11;-5.10;1.00
318;DHT22;146;53.448;10.228;2022-12-18T00:37:38;-5.10;1.00
318;DHT22;146;53.448;10.228;2022-12-18T00:40:05;-5.00;1.00
318;DHT22;146;53.448;10.228;2022-12-18T00:42:32;-5.10;1.00
318;DHT22;146;53.448;10.228;2022-12-18T00:45:17;-5.10;1.00
318;DHT22;146;53.448;10.228;2022-12-18T00:47:44;-5.20;1.00
318;DHT22;146;53.448;10.228;2022-12-18T00:50:12;-5.30;1.00
318;DHT22;146;53.448;10.228;2022-12-18T00:52:40;-5.30;1.00
318;DHT22;146;53.448;10.228;2022-12-18T00:55:07;-5.30;1.00
318;DHT22;146;53.448;10.228;2022-12-18T00:57:34;-5.20;1.00
318;DHT22;146;53.448;10.228;2022-12-18T01:00:00;-5.30;1.00
318;DHT22;146;53.448;10.228;2022-12-18T01:02:27;-5.30;1.00
318;DHT22;146;53.448;10.228;2022-12-18T01:04:54;-5.30;1.00
318;DHT22;146;53.448;10.228;2022-12-18T01:07:22;-5.30;1.00
318;DHT22;146;53.448;10.228;2022-12-18T01:09:49;-5.30;1.00
318;DHT22;146;53.448;10.228;2022-12-18T01:12:16;-5.30;1.00
318;DHT22;146;53.448;10.228;2022-12-18T01:14:43;-5.30;1.00
318;DHT22;146;53.448;10.228;2022-12-18T01:17:10;-5.30;1.00
318;DHT22;146;53.448;10.228;2022-12-18T01:19:36;-5.20;1.00
318;DHT22;146;53.448;10.228;2022-12-18T01:22:03;-5.20;1.00
318;DHT22;146;53.448;10.228;2022-12-18T01:24:31;-5.20;1.00
318;DHT22;146;53.448;10.228;2022-12-18T01:26:58;-5.10;1.00
318;DHT22;146;53.448;10.228;2022-12-18T01:29:25;-5.10;1.00
318;DHT22;146;53.448;10.228;2022-12-18T01:31:54;-5.10;1.00
318;DHT22;146;53.448;10.228;2022-12-18T01:34:21;-5.20;1.00
318;DHT22;146;53.448;10.228;2022-12-18T01:36:48;-5.30;1.00
318;DHT22;146;53.448;10.228;2022-12-18T01:39:17;-5.30;1.00
318;DHT22;146;53.448;10.228;2022-12-18T01:41:46;-5.40;1.00
318;DHT22;146;53.448;10.228;2022-12-18T01:44:57;-5.50;1.00
318;DHT22;146;53.448;10.228;2022-12-18T01:47:27;-5.50;1.00
318;DHT22;146;53.448;10.228;2022-12-18T01:49:57;-5.60;1.00
318;DHT22;146;53.448;10.228;2022-12-18T01:52:25;-5.60;1.00
318;DHT22;146;53.448;10.228;2022-12-18T01:54:53;-5.70;1.00
318;DHT22;146;53.448;10.228;2022-12-18T01:57:23;-5.70;1.00
318;DHT22;146;53.448;10.228;2022-12-18T01:59:52;-5.60;1.00
318;DHT22;146;53.448;10.228;2022-12-18T02:02:20;-5.70;1.00
318;DHT22;146;53.448;10.228;2022-12-18T02:04:47;-5.70;1.00
318;DHT22;146;53.448;10.228;2022-12-18T02:07:19;-5.70;1.00
318;DHT22;146;53.448;10.228;2022-12-18T02:09:51;-5.70;1.00
318;DHT22;146;53.448;10.228;2022-12-18T02:12:25;-5.60;1.00
318;DHT22;146;53.448;10.228;2022-12-18T02:14:57;-5.60;1.00
318;DHT22;146;53.448;10.228;2022-12-18T02:17:32;-5.70;1.00
318;DHT22;146;53.448;10.228;2022-12-18T02:20:06;-5.60;1.00
318;DHT22;146;53.448;10.228;2022-12-18T02:22:48;-5.60;1.00
318;DHT22;146;53.448;10.228;2022-12-18T02:25:32;-5.60;1.00
318;DHT22;146;53.448;10.228;2022-12-18T02:28:08;-5.60;1.00
318;DHT22;146;53.448;10.228;2022-12-18T02:30:38;-5.50;1.00
318;DHT22;146;53.448;10.228;2022-12-18T02:33:07;-5.60;1.00
318;DHT22;146;53.448;10.228;2022-12-18T02:35:36;-5.60;1.00
318;DHT22;146;53.448;10.228;2022-12-18T02:38:04;-5.70;1.00
318;DHT22;146;53.448;10.228;2022-12-18T02:40:31;-5.80;1.00
318;DHT22;146;53.448;10.228;2022-12-18T02:43:03;-5.80;1.00
318;DHT22;146;53.448;10.228;2022-12-18T02:45:34;-5.80;1.00
318;DHT22;146;53.448;10.228;2022-12-18T02:48:01;-5.80;1.00
318;DHT22;146;53.448;10.228;2022-12-18T02:50:35;-5.70;1.00
318;DHT22;146;53.448;10.228;2022-12-18T02:53:13;-5.70;1.00
318;DHT22;146;53.448;10.228;2022-12-18T02:55:51;-5.80;1.00
318;DHT22;146;53.448;10.228;2022-12-18T02:58:27;-5.80;1.00
318;DHT22;146;53.448;10.228;2022-12-18T03:01:01;-5.80;1.00
318;DHT22;146;53.448;10.228;2022-12-18T03:03:33;-5.90;1.00
318;DHT22;146;53.448;10.228;2022-12-18T03:06:05;-6.00;1.00
318;DHT22;146;53.448;10.228;2022-12-18T03:08:36;-6.00;1.00
318;DHT22;146;53.448;10.228;2022-12-18T03:11:08;-6.00;1.00
318;DHT22;146;53.448;10.228;2022-12-18T03:13:39;-6.00;1.00
318;DHT22;146;53.448;10.228;2022-12-18T03:16:11;-5.90;1.00
318;DHT22;146;53.448;10.228;2022-12-18T03:18:44;-5.90;1.00
318;DHT22;146;53.448;10.228;2022-12-18T03:21:14;-6.00;1.00
318;DHT22;146;53.448;10.228;2022-12-18T03:23:46;-6.00;1.00
318;DHT22;146;53.448;10.228;2022-12-18T03:26:16;-5.90;1.00
318;DHT22;146;53.448;10.228;2022-12-18T03:28:46;-5.90;1.00
318;DHT22;146;53.448;10.228;2022-12-18T03:31:18;-5.90;1.00
318;DHT22;146;53.448;10.228;2022-12-18T03:33:50;-5.90;1.00
318;DHT22;146;53.448;10.228;2022-12-18T03:36:17;-5.80;1.00
318;DHT22;146;53.448;10.228;2022-12-18T03:38:44;-5.80;1.00
318;DHT22;146;53.448;10.228;2022-12-18T03:41:18;-5.80;1.00
318;DHT22;146;53.448;10.228;2022-12-18T03:43:50;-5.90;1.00
318;DHT22;146;53.448;10.228;2022-12-18T03:46:26;-6.00;1.00
318;DHT22;146;53.448;10.228;2022-12-18T03:49:00;-6.00;1.00
318;DHT22;146;53.448;10.228;2022-12-18T03:51:36;-5.90;1.00
318;DHT22;146;53.448;10.228;2022-12-18T03:54:06;-6.00;1.00
318;DHT22;146;53.448;10.228;2022-12-18T03:56:37;-6.10;1.00
318;DHT22;146;53.448;10.228;2022-12-18T03:59:05;-6.20;1.00
318;DHT22;146;53.448;10.228;2022-12-18T04:01:35;-6.20;1.00
318;DHT22;146;53.448;10.228;2022-12-18T04:04:06;-6.20;1.00
318;DHT22;146;53.448;10.228;2022-12-18T04:06:36;-6.20;1.00
318;DHT22;146;53.448;10.228;2022-12-18T04:09:06;-6.20;1.00
318;DHT22;146;53.448;10.228;2022-12-18T04:11:45;-6.20;1.00
318;DHT22;146;53.448;10.228;2022-12-18T04:14:15;-6.10;1.00
318;DHT22;146;53.448;10.228;2022-12-18T04:16:43;-6.10;1.00
318;DHT22;146;53.448;10.228;2022-12-18T04:19:17;-6.10;1.00
318;DHT22;146;53.448;10.228;2022-12-18T04:21:44;-6.00;1.00
318;DHT22;146;53.448;10.228;2022-12-18T04:24:14;-6.10;1.00
318;DHT22;146;53.448;10.228;2022-12-18T04:26:47;-6.10;1.00
318;DHT22;146;53.448;10.228;2022-12-18T04:29:14;-6.10;1.00
318;DHT22;146;53.448;10.228;2022-12-18T04:31:43;-6.10;1.00
318;DHT22;146;53.448;10.228;2022-12-18T04:34:20;-6.00;1.00
318;DHT22;146;53.448;10.228;2022-12-18T04:36:54;-6.10;1.00
318;DHT22;146;53.448;10.228;2022-12-18T04:39:21;-6.10;1.00
318;DHT22;146;53.448;10.228;2022-12-18T04:41:55;-6.10;1.00
318;DHT22;146;53.448;10.228;2022-12-18T04:44:29;-6.10;1.00
318;DHT22;146;53.448;10.228;2022-12-18T04:46:58;-6.10;1.00
318;DHT22;146;53.448;10.228;2022-12-18T04:49:25;-6.10;1.00
318;DHT22;146;53.448;10.228;2022-12-18T04:51:53;-6.10;1.00
318;DHT22;146;53.448;10.228;2022-12-18T04:54:20;-6.20;1.00
318;DHT22;146;53.448;10.228;2022-12-18T04:56:53;-6.30;1.00
318;DHT22;146;53.448;10.228;2022-12-18T04:59:22;-6.20;1.00
318;DHT22;146;53.448;10.228;2022-12-18T05:01:49;-6.20;1.00
318;DHT22;146;53.448;10.228;2022-12-18T05:04:20;-6.20;1.00
318;DHT22;146;53.448;10.228;2022-12-18T05:06:47;-6.10;1.00
318;DHT22;146;53.448;10.228;2022-12-18T05:09:20;-6.20;1.00
318;DHT22;146;53.448;10.228;2022-12-18T05:11:58;-6.20;1.00
318;DHT22;146;53.448;10.228;2022-12-18T05:14:25;-6.20;1.00
318;DHT22;146;53.448;10.228;2022-12-18T05:16:55;-6.20;1.00
318;DHT22;146;53.448;10.228;2022-12-18T05:19:26;-6.20;1.00
318;DHT22;146;53.448;10.228;2022-12-18T05:21:55;-6.20;1.00
318;DHT22;146;53.448;10.228;2022-12-18T05:24:23;-6.20;1.00
318;DHT22;146;53.448;10.228;2022-12-18T05:26:50;-6.30;1.00
318;DHT22;146;53.448;10.228;2022-12-18T05:29:17;-6.20;1.00
318;DHT22;146;53.448;10.228;2022-12-18T05:31:44;-6.30;1.00
318;DHT22;146;53.448;10.228;2022-12-18T05:34:11;-6.30;1.00
318;DHT22;146;53.448;10.228;2022-12-18T05:36:39;-6.30;1.00
318;DHT22;146;53.448;10.228;2022-12-18T05:39:09;-6.30;1.00
318;DHT22;146;53.448;10.228;2022-12-18T05:41:41;-6.40;1.00
318;DHT22;146;53.448;10.228;2022-12-18T05:44:11;-6.40;1.00
318;DHT22;146;53.448;10.228;2022-12-18T05:46:38;-6.40;1.00
318;DHT22;146;53.448;10.228;2022-12-18T05:49:05;-6.40;1.00
318;DHT22;146;53.448;10.228;2022-12-18T05:51:36;-6.50;1.00
318;DHT22;146;53.448;10.228;2022-12-18T05:54:12;-6.50;1.00
318;DHT22;146;53.448;10.228;2022-12-18T05:56:46;-6.50;1.00
318;DHT22;146;53.448;10.228;2022-12-18T05:59:25;-6.50;1.00
318;DHT22;146;53.448;10.228;2022-12-18T06:02:17;-6.50;1.00
318;DHT22;146;53.448;10.228;2022-12-18T06:04:53;-6.50;1.00
318;DHT22;146;53.448;10.228;2022-12-18T06:10:22;-6.60;1.00
318;DHT22;146;53.448;10.228;2022-12-18T06:13:08;-6.60;1.00
318;DHT22;146;53.448;10.228;2022-12-18T06:16:04;-6.60;1.00
318;DHT22;146;53.448;10.228;2022-12-18T06:18:31;-6.60;1.00
318;DHT22;146;53.448;10.228;2022-12-18T06:21:04;-6.60;1.00
318;DHT22;146;53.448;10.228;2022-12-18T06:23:31;-6.60;1.00
318;DHT22;146;53.448;10.228;2022-12-18T06:26:04;-6.60;1.00
318;DHT22;146;53.448;10.228;2022-12-18T06:28:31;-6.60;1.00
318;DHT22;146;53.448;10.228;2022-12-18T06:37:30;-6.50;1.00
318;DHT22;146;53.448;10.228;2022-12-18T06:39:58;-6.50;1.00
318;DHT22;146;53.448;10.228;2022-12-18T06:42:35;-6.60;1.00
318;DHT22;146;53.448;10.228;2022-12-18T06:45:09;-6.60;1.00
318;DHT22;146;53.448;10.228;2022-12-18T06:47:36;-6.60;1.00
318;DHT22;146;53.448;10.228;2022-12-18T06:50:04;-6.60;1.00
318;DHT22;146;53.448;10.228;2022-12-18T06:56:33;-6.60;1.00
318;DHT22;146;53.448;10.228;2022-12-18T06:59:02;-6.60;1.00
318;DHT22;146;53.448;10.228;2022-12-18T07:01:29;-6.60;1.00
318;DHT22;146;53.448;10.228;2022-12-18T07:03:57;-6.60;1.00
318;DHT22;146;53.448;10.228;2022-12-18T07:06:26;-6.60;1.00
318;DHT22;146;53.448;10.228;2022-12-18T07:08:53;-6.70;1.00
318;DHT22;146;53.448;10.228;2022-12-18T07:11:20;-6.70;1.00
318;DHT22;146;53.448;10.228;2022-12-18T07:13:47;-6.80;1.00
318;DHT22;146;53.448;10.228;2022-12-18T07:16:17;-6.80;1.00
318;DHT22;146;53.448;10.228;2022-12-18T07:18:44;-6.80;1.00
318;DHT22;146;53.448;10.228;2022-12-18T07:21:12;-6.80;1.00
318;DHT22;146;53.448;10.228;2022-12-18T07:23:40;-6.80;1.00
318;DHT22;146;53.448;10.228;2022-12-18T07:26:08;-6.80;1.00
318;DHT22;146;53.448;10.228;2022-12-18T07:28:35;-6.80;1.00
318;DHT22;146;53.448;10.228;2022-12-18T07:31:03;-6.80;1.00
318;DHT22;146;53.448;10.228;2022-12-18T07:33:33;-6.80;1.00
318;DHT22;146;53.448;10.228;2022-12-18T07:36:00;-6.80;1.00
318;DHT22;146;53.448;10.228;2022-12-18T07:38:27;-6.80;1.00
318;DHT22;146;53.448;10.228;2022-12-18T07:40:53;-6.80;1.00
318;DHT22;146;53.448;10.228;2022-12-18T07:43:20;-6.80;1.00
318;DHT22;146;53.448;10.228;2022-12-18T07:45:49;-6.90;1.00
318;DHT22;146;53.448;10.228;2022-12-18T07:48:16;-6.90;1.00
318;DHT22;146;53.448;10.228;2022-12-18T07:50:44;-6.90;1.00
318;DHT22;146;53.448;10.228;2022-12-18T07:53:11;-7.00;1.00
318;DHT22;146;53.448;10.228;2022-12-18T07:55:39;-6.90;1.00
318;DHT22;146;53.448;10.228;2022-12-18T07:58:07;-6.90;1.00
318;DHT22;146;53.448;10.228;2022-12-18T08:00:34;-6.90;1.00
318;DHT22;146;53.448;10.228;2022-12-18T08:03:01;-6.90;1.00
318;DHT22;146;53.448;10.228;2022-12-18T08:05:28;-6.90;1.00
318;DHT22;146;53.448;10.228;2022-12-18T08:07:58;-6.90;1.00
318;DHT22;146;53.448;10.228;2022-12-18T08:10:25;-6.80;1.00
318;DHT22;146;53.448;10.228;2022-12-18T08:12:52;-6.80;1.00
318;DHT22;146;53.448;10.228;2022-12-18T08:15:18;-6.90;1.00
318;DHT22;146;53.448;10.228;2022-12-18T08:17:45;-6.80;1.00
318;DHT22;146;53.448;10.228;2022-12-18T08:20:12;-6.80;1.00
318;DHT22;146;53.448;10.228;2022-12-18T08:22:40;-6.80;1.00
318;DHT22;146;53.448;10.228;2022-12-18T08:25:09;-6.80;1.00
318;DHT22;146;53.448;10.228;2022-12-18T08:27:36;-6.80;1.00
318;DHT22;146;53.448;10.228;2022-12-18T08:30:04;-6.70;1.00
318;DHT22;146;53.448;10.228;2022-12-18T08:32:31;-6.70;1.00
318;DHT22;146;53.448;10.228;2022-12-18T08:34:58;-6.70;1.00
318;DHT22;146;53.448;10.228;2022-12-18T08:37:25;-6.60;1.00
318;DHT22;146;53.448;10.228;2022-12-18T08:39:52;-6.60;1.00
318;DHT22;146;53.448;10.228;2022-12-18T08:42:20;-6.60;1.00
318;DHT22;146;53.448;10.228;2022-12-18T08:45:05;-6.60;1.00
318;DHT22;146;53.448;10.228;2022-12-18T08:47:32;-6.50;1.00
318;DHT22;146;53.448;10.228;2022-12-18T08:49:59;-6.50;1.00
318;DHT22;146;53.448;10.228;2022-12-18T08:52:26;-6.40;1.00
318;DHT22;146;53.448;10.228;2022-12-18T08:54:53;-6.40;1.00
318;DHT22;146;53.448;10.228;2022-12-18T08:57:21;-6.30;1.00
318;DHT22;146;53.448;10.228;2022-12-18T08:59:48;-6.30;1.00
318;DHT22;146;53.448;10.228;2022-12-18T09:02:15;-6.20;1.00
318;DHT22;146;53.448;10.228;2022-12-18T09:04:42;-6.20;1.00
318;DHT22;146;53.448;10.228;2022-12-18T09:07:09;-6.20;1.00
318;DHT22;146;53.448;10.228;2022-12-18T09:09:36;-6.20;1.00
318;DHT22;146;53.448;10.228;2022-12-18T09:12:03;-6.10;1.00
318;DHT22;146;53.448;10.228;2022-12-18T09:14:31;-6.10;1.00
318;DHT22;146;53.448;10.228;2022-12-18T09:16:58;-6.00;1.00
318;DHT22;146;53.448;10.228;2022-12-18T09:19:25;-5.90;1.00
318;DHT22;146;53.448;10.228;2022-12-18T09:21:51;-5.80;1.00
318;DHT22;146;53.448;10.228;2022-12-18T09:24:18;-5.80;1.00
318;DHT22;146;53.448;10.228;2022-12-18T09:26:45;-5.70;1.00
318;DHT22;146;53.448;10.228;2022-12-18T09:29:12;-5.60;1.00
318;DHT22;146;53.448;10.228;2022-12-18T09:31:40;-5.50;1.00
318;DHT22;146;53.448;10.228;2022-12-18T09:34:07;-5.40;1.00
318;DHT22;146;53.448;10.228;2022-12-18T09:36:34;-5.30;1.00
318;DHT22;146;53.448;10.228;2022-12-18T09:39:00;-5.30;1.00
318;DHT22;146;53.448;10.228;2022-12-18T09:41:39;-5.20;1.00
318;DHT22;146;53.448;10.228;2022-12-18T09:44:18;-5.20;1.00
318;DHT22;146;53.448;10.228;2022-12-18T09:46:54;-5.20;1.00
318;DHT22;146;53.448;10.228;2022-12-18T09:49:26;-5.10;1.00
318;DHT22;146;53.448;10.228;2022-12-18T09:51:59;-5.10;1.00
318;DHT22;146;53.448;10.228;2022-12-18T09:54:32;-5.00;1.00
318;DHT22;146;53.448;10.228;2022-12-18T09:57:01;-4.90;1.00
318;DHT22;146;53.448;10.228;2022-12-18T09:59:34;-4.80;1.00
318;DHT22;146;53.448;10.228;2022-12-18T10:02:15;-4.90;1.00
318;DHT22;146;53.448;10.228;2022-12-18T10:04:43;-4.90;1.00
318;DHT22;146;53.448;10.228;2022-12-18T10:07:15;-4.80;1.00
318;DHT22;146;53.448;10.228;2022-12-18T10:09:52;-4.70;1.00
318;DHT22;146;53.448;10.228;2022-12-18T10:12:28;-4.60;1.00
318;DHT22;146;53.448;10.228;2022-12-18T10:15:02;-4.50;1.00
318;DHT22;146;53.448;10.228;2022-12-18T10:17:41;-4.40;1.00
318;DHT22;146;53.448;10.228;2022-12-18T10:20:15;-4.30;1.00
318;DHT22;146;53.448;10.228;2022-12-18T10:22:52;-4.20;1.00
318;DHT22;146;53.448;10.228;2022-12-18T10:25:23;-4.10;1.00
318;DHT22;146;53.448;10.228;2022-12-18T10:27:53;-4.10;1.00
318;DHT22;146;53.448;10.228;2022-12-18T10:30:23;-4.10;1.00
318;DHT22;146;53.448;10.228;2022-12-18T10:32:51;-4.00;1.00
318;DHT22;146;53.448;10.228;2022-12-18T10:35:21;-3.90;1.00
318;DHT22;146;53.448;10.228;2022-12-18T10:38:02;-3.90;1.00
318;DHT22;146;53.448;10.228;2022-12-18T10:40:30;-3.80;1.00
318;DHT22;146;53.448;10.228;2022-12-18T10:43:04;-3.80;1.00
318;DHT22;146;53.448;10.228;2022-12-18T10:45:32;-3.70;1.00
318;DHT22;146;53.448;10.228;2022-12-18T10:48:00;-3.70;1.00
318;DHT22;146;53.448;10.228;2022-12-18T10:50:30;-3.70;1.00
318;DHT22;146;53.448;10.228;2022-12-18T10:52:59;-3.60;1.00
318;DHT22;146;53.448;10.228;2022-12-18T10:55:31;-3.70;1.00
318;DHT22;146;53.448;10.228;2022-12-18T10:58:15;-3.60;1.00
318;DHT22;146;53.448;10.228;2022-12-18T11:00:43;-3.50;1.00
318;DHT22;146;53.448;10.228;2022-12-18T11:03:30;-3.40;1.00
318;DHT22;146;53.448;10.228;2022-12-18T11:06:06;-3.40;1.00
318;DHT22;146;53.448;10.228;2022-12-18T11:08:33;-3.30;1.00
318;DHT22;146;53.448;10.228;2022-12-18T11:11:01;-3.20;1.00
318;DHT22;146;53.448;10.228;2022-12-18T11:13:29;-3.10;1.00
318;DHT22;146;53.448;10.228;2022-12-18T11:15:57;-3.10;1.00
318;DHT22;146;53.448;10.228;2022-12-18T11:18:28;-3.00;1.00
318;DHT22;146;53.448;10.228;2022-12-18T11:20:57;-3.00;1.00
318;DHT22;146;53.448;10.228;2022-12-18T11:23:26;-2.90;1.00
318;DHT22;146;53.448;10.228;2022-12-18T11:25:56;-2.80;1.00
318;DHT22;146;53.448;10.228;2022-12-18T11:28:35;-2.80;1.00
318;DHT22;146;53.448;10.228;2022-12-18T11:31:22;-2.80;1.00
318;DHT22;146;53.448;10.228;2022-12-18T11:34:01;-2.80;1.00
318;DHT22;146;53.448;10.228;2022-12-18T11:36:32;-2.80;1.00
318;DHT22;146;53.448;10.228;2022-12-18T11:39:02;-2.80;1.00
318;DHT22;146;53.448;10.228;2022-12-18T11:41:36;-2.80;1.00
318;DHT22;146;53.448;10.228;2022-12-18T11:44:26;-2.70;1.00
318;DHT22;146;53.448;10.228;2022-12-18T11:46:59;-2.70;1.00
318;DHT22;146;53.448;10.228;2022-12-18T11:49:33;-2.70;1.00
318;DHT22;146;53.448;10.228;2022-12-18T11:52:04;-2.60;1.00
318;DHT22;146;53.448;10.228;2022-12-18T11:54:36;-2.60;1.00
318;DHT22;146;53.448;10.228;2022-12-18T11:57:10;-2.60;1.00
318;DHT22;146;53.448;10.228;2022-12-18T11:59:48;-2.50;1.00
318;DHT22;146;53.448;10.228;2022-12-18T12:05:25;-2.50;1.00
318;DHT22;146;53.448;10.228;2022-12-18T12:07:58;-2.50;1.00
318;DHT22;146;53.448;10.228;2022-12-18T12:10:37;-2.60;1.00
318;DHT22;146;53.448;10.228;2022-12-18T12:13:28;-2.50;1.00
318;DHT22;146;53.448;10.228;2022-12-18T12:16:06;-2.50;1.00
318;DHT22;146;53.448;10.228;2022-12-18T12:18:46;-2.50;1.00
318;DHT22;146;53.448;10.228;2022-12-18T12:21:20;-2.50;1.00
318;DHT22;146;53.448;10.228;2022-12-18T12:23:55;-2.50;1.00
318;DHT22;146;53.448;10.228;2022-12-18T12:26:31;-2.50;1.00
318;DHT22;146;53.448;10.228;2022-12-18T12:29:14;-2.40;1.00
318;DHT22;146;53.448;10.228;2022-12-18T12:31:59;-2.50;1.00
318;DHT22;146;53.448;10.228;2022-12-18T12:34:34;-2.50;1.00
318;DHT22;146;53.448;10.228;2022-12-18T12:37:15;-2.50;1.00
318;DHT22;146;53.448;10.228;2022-12-18T12:39:46;-2.50;1.00
318;DHT22;146;53.448;10.228;2022-12-18T12:42:18;-2.50;1.00
318;DHT22;146;53.448;10.228;2022-12-18T12:45:07;-2.40;1.00
318;DHT22;146;53.448;10.228;2022-12-18T12:47:41;-2.40;1.00
318;DHT22;146;53.448;10.228;2022-12-18T12:50:15;-2.30;1.00
318;DHT22;146;53.448;10.228;2022-12-18T12:52:46;-2.20;1.00
318;DHT22;146;53.448;10.228;2022-12-18T12:55:17;-2.20;1.00
318;DHT22;146;53.448;10.228;2022-12-18T12:57:54;-2.20;1.00
318;DHT22;146;53.448;10.228;2022-12-18T13:00:22;-2.20;1.00
318;DHT22;146;53.448;10.228;2022-12-18T13:02:56;-2.20;1.00
318;DHT22;146;53.448;10.228;2022-12-18T13:05:30;-2.10;1.00
318;DHT22;146;53.448;10.228;2022-12-18T13:08:03;-2.10;1.00
318;DHT22;146;53.448;10.228;2022-12-18T13:10:34;-2.20;1.00
318;DHT22;146;53.448;10.228;2022-12-18T13:13:04;-2.20;1.00
318;DHT22;146;53.448;10.228;2022-12-18T13:15:33;-2.10;1.00
318;DHT22;146;53.448;10.228;2022-12-18T13:18:15;-2.10;1.00
318;DHT22;146;53.448;10.228;2022-12-18T13:20:44;-2.20;1.00
318;DHT22;146;53.448;10.228;2022-12-18T13:23:29;-2.20;1.00
318;DHT22;146;53.448;10.228;2022-12-18T13:25:57;-2.20;1.00
318;DHT22;146;53.448;10.228;2022-12-18T13:28:51;-2.20;1.00
318;DHT22;146;53.448;10.228;2022-12-18T13:34:33;-2.20;1.00
318;DHT22;146;53.448;10.228;2022-12-18T13:43:31;-2.30;1.00
318;DHT22;146;53.448;10.228;2022-12-18T13:46:04;-2.50;1.00
318;DHT22;146;53.448;10.228;2022-12-18T13:48:33;-2.50;1.00
318;DHT22;146;53.448;10.228;2022-12-18T13:51:03;-2.60;1.00
318;DHT22;146;53.448;10.228;2022-12-18T13:53:34;-2.60;1.00
318;DHT22;146;53.448;10.228;2022-12-18T13:56:03;-2.70;1.00
318;DHT22;146;53.448;10.228;2022-12-18T13:58:31;-2.80;1.00
318;DHT22;146;53.448;10.228;2022-12-18T14:00:58;-2.80;1.00
318;DHT22;146;53.448;10.228;2022-12-18T14:03:29;-2.80;1.00
318;DHT22;146;53.448;10.228;2022-12-18T14:05:59;-2.80;1.00
318;DHT22;146;53.448;10.228;2022-12-18T14:08:32;-2.80;1.00
318;DHT22;146;53.448;10.228;2022-12-18T14:11:00;-2.80;1.00
318;DHT22;146;53.448;10.228;2022-12-18T14:13:31;-2.90;1.00
318;DHT22;146;53.448;10.228;2022-12-18T14:16:00;-2.80;1.00
318;DHT22;146;53.448;10.228;2022-12-18T14:18:33;-2.80;1.00
318;DHT22;146;53.448;10.228;2022-12-18T14:21:04;-2.90;1.00
318;DHT22;146;53.448;10.228;2022-12-18T14:23:33;-2.90;1.00
318;DHT22;146;53.448;10.228;2022-12-18T14:26:01;-2.90;1.00
318;DHT22;146;53.448;10.228;2022-12-18T14:28:30;-2.90;1.00
318;DHT22;146;53.448;10.228;2022-12-18T14:30:57;-3.00;1.00
318;DHT22;146;53.448;10.228;2022-12-18T14:33:26;-3.00;1.00
318;DHT22;146;53.448;10.228;2022-12-18T14:35:55;-3.00;1.00
318;DHT22;146;53.448;10.228;2022-12-18T14:38:26;-3.10;1.00
318;DHT22;146;53.448;10.228;2022-12-18T14:40:55;-3.00;1.00
318;DHT22;146;53.448;10.228;2022-12-18T14:43:22;-3.00;1.00
318;DHT22;146;53.448;10.228;2022-12-18T14:45:51;-3.00;1.00
318;DHT22;146;53.448;10.228;2022-12-18T14:48:19;-3.00;1.00
318;DHT22;146;53.448;10.228;2022-12-18T14:50:55;-3.10;1.00
318;DHT22;146;53.448;10.228;2022-12-18T14:53:25;-3.10;1.00
318;DHT22;146;53.448;10.228;2022-12-18T14:55:54;-3.10;1.00
318;DHT22;146;53.448;10.228;2022-12-18T14:58:22;-3.30;1.00
318;DHT22;146;53.448;10.228;2022-12-18T15:00:50;-3.30;1.00
318;DHT22;146;53.448;10.228;2022-12-18T15:03:18;-3.30;1.00
318;DHT22;146;53.448;10.228;2022-12-18T15:05:46;-3.30;1.00
318;DHT22;146;53.448;10.228;2022-12-18T15:08:31;-3.40;1.00
318;DHT22;146;53.448;10.228;2022-12-18T15:11:00;-3.40;1.00
318;DHT22;146;53.448;10.228;2022-12-18T15:13:27;-3.50;1.00
318;DHT22;146;53.448;10.228;2022-12-18T15:15:56;-3.50;1.00
318;DHT22;146;53.448;10.228;2022-12-18T15:18:29;-3.50;1.00
318;DHT22;146;53.448;10.228;2022-12-18T15:20:58;-3.50;1.00
318;DHT22;146;53.448;10.228;2022-12-18T15:23:27;-3.60;1.00
318;DHT22;146;53.448;10.228;2022-12-18T15:25:58;-3.60;1.00
318;DHT22;146;53.448;10.228;2022-12-18T15:28:28;-3.50;1.00
318;DHT22;146;53.448;10.228;2022-12-18T15:31:17;-3.60;1.00
318;DHT22;146;53.448;10.228;2022-12-18T15:34:04;-3.60;1.00
318;DHT22;146;53.448;10.228;2022-12-18T15:36:31;-3.70;1.00
318;DHT22;146;53.448;10.228;2022-12-18T15:39:02;-3.70;1.00
318;DHT22;146;53.448;10.228;2022-12-18T15:41:31;-3.70;1.00
318;DHT22;146;53.448;10.228;2022-12-18T15:43:59;-3.70;1.00
318;DHT22;146;53.448;10.228;2022-12-18T15:46:26;-3.70;1.00
318;DHT22;146;53.448;10.228;2022-12-18T15:48:54;-3.70;1.00
318;DHT22;146;53.448;10.228;2022-12-18T15:51:23;-3.70;1.00
318;DHT22;146;53.448;10.228;2022-12-18T15:53:53;-3.80;1.00
318;DHT22;146;53.448;10.228;2022-12-18T15:56:20;-3.80;1.00
318;DHT22;146;53.448;10.228;2022-12-18T15:59:10;-3.80;1.00
318;DHT22;146;53.448;10.228;2022-12-18T16:01:39;-3.80;1.00
318;DHT22;146;53.448;10.228;2022-12-18T16:04:06;-3.80;1.00
318;DHT22;146;53.448;10.228;2022-12-18T16:06:35;-3.80;1.00
318;DHT22;146;53.448;10.228;2022-12-18T16:09:02;-3.80;1.00
318;DHT22;146;53.448;10.228;2022-12-18T16:11:30;-3.70;1.00
318;DHT22;146;53.448;10.228;2022-12-18T16:14:16;-3.70;1.00
318;DHT22;146;53.448;10.228;2022-12-18T16:16:45;-3.70;1.00
318;DHT22;146;53.448;10.228;2022-12-18T16:19:12;-3.70;1.00
318;DHT22;146;53.448;10.228;2022-12-18T16:21:39;-3.70;1.00
318;DHT22;146;53.448;10.228;2022-12-18T16:24:09;-3.70;1.00
318;DHT22;146;53.448;10.228;2022-12-18T16:26:39;-3.60;1.00
318;DHT22;146;53.448;10.228;2022-12-18T16:29:07;-3.70;1.00
318;DHT22;146;53.448;10.228;2022-12-18T16:31:34;-3.60;1.00
318;DHT22;146;53.448;10.228;2022-12-18T16:34:17;-3.60;1.00
318;DHT22;146;53.448;10.228;2022-12-18T16:36:46;-3.60;1.00
318;DHT22;146;53.448;10.228;2022-12-18T16:39:13;-3.50;1.00
318;DHT22;146;53.448;10.228;2022-12-18T16:41:40;-3.50;1.00
318;DHT22;146;53.448;10.228;2022-12-18T16:44:07;-3.40;1.00
318;DHT22;146;53.448;10.228;2022-12-18T16:46:34;-3.50;1.00
318;DHT22;146;53.448;10.228;2022-12-18T16:49:01;-3.50;1.00
318;DHT22;146;53.448;10.228;2022-12-18T16:51:29;-3.50;1.00
318;DHT22;146;53.448;10.228;2022-12-18T16:53:56;-3.50;1.00
318;DHT22;146;53.448;10.228;2022-12-18T16:56:23;-3.50;1.00
318;DHT22;146;53.448;10.228;2022-12-18T16:58:51;-3.50;1.00
318;DHT22;146;53.448;10.228;2022-12-18T17:01:18;-3.40;1.00
318;DHT22;146;53.448;10.228;2022-12-18T17:03:51;-3.40;1.00
318;DHT22;146;53.448;10.228;2022-12-18T17:06:18;-3.50;1.00
318;DHT22;146;53.448;10.228;2022-12-18T17:08:47;-3.50;1.00
318;DHT22;146;53.448;10.228;2022-12-18T17:11:14;-3.60;1.00
318;DHT22;146;53.448;10.228;2022-12-18T17:13:40;-3.50;1.00
318;DHT22;146;53.448;10.228;2022-12-18T17:16:08;-3.50;1.00
318;DHT22;146;53.448;10.228;2022-12-18T17:18:35;-3.50;1.00
318;DHT22;146;53.448;10.228;2022-12-18T17:21:04;-3.50;1.00
318;DHT22;146;53.448;10.228;2022-12-18T17:23:31;-3.50;1.00